Wetterdaten: aktuell Sonntag, 10.05.2026 11:05
Datum Zeit Arbeit-Z. Temp. A. Bod.+5cm Temp. A. min Temp. A. max Bl.Temp +1m BTemp -5cm BTemp -10cm BTemp -20cm BTemp -50cm Feuchte I. Feuchte A. BlattFeu +1m BFeucht -5cm BFeucht-10cm BFeucht-20cm BFeucht-50cm Luftdruck Regen Wind Richtung Richtung Sonnenschein ET UV Solar Taupunkt Windchill Windböen Empfang
10.05.2026 11:05 22,4 °C 21,3 °C 20,0 °C 21,2 °C 21,3 °C 15,0 °C 15,0 °C 14,4 °C 14,4 °C 13,9 °C 51 % 66 % 0 lf 200 cb 171 cb 90 cb 76 cb 1006,8 hPa 0,0 l/m² 4,4 km/h (1 Bft) SW 223 ° 60 min 0,356 mm 2,9 UV-I 570 W/m² 14,7 °C 21,3 °C 9,7 km/h (2 Bft) 98,32 %
10.05.2026 10:05 22,3 °C 18,8 °C 17,8 °C 18,6 °C 18,8 °C 13,9 °C 13,9 °C 14,4 °C 15,0 °C 13,9 °C 49 % 73 % 0 lf 200 cb 172 cb 91 cb 76 cb 1007,5 hPa 0,0 l/m² 3,6 km/h (1 Bft) N 5 ° 60 min 0,254 mm 2,3 UV-I 566 W/m² 13,9 °C 18,8 °C 8,0 km/h (2 Bft) 94,44 %
10.05.2026 09:05 22,3 °C 16,4 °C 15,6 °C 16,3 °C 16,5 °C 13,3 °C 13,3 °C 15,0 °C 15,0 °C 13,9 °C 49 % 76 % 0 lf 200 cb 173 cb 91 cb 75 cb 1007,8 hPa 0,0 l/m² 4,8 km/h (1 Bft) N 355 ° 60 min 0,127 mm 1,2 UV-I 278 W/m² 12,2 °C 16,4 °C 8,0 km/h (2 Bft) 96,58 %
10.05.2026 08:05 22,2 °C 14,1 °C 12,8 °C 13,8 °C 14,1 °C 13,9 °C 13,9 °C 15,0 °C 15,0 °C 13,9 °C 48 % 84 % 0 lf 200 cb 172 cb 90 cb 75 cb 1008,1 hPa 0,0 l/m² 3,3 km/h (1 Bft) NW 323 ° 25 min 0,051 mm 0,6 UV-I 206 W/m² 11,4 °C 14,1 °C 6,4 km/h (2 Bft) 93,33 %
10.05.2026 07:05 22,3 °C 11,7 °C 11,1 °C 11,6 °C 11,7 °C 13,9 °C 13,9 °C 15,0 °C 15,0 °C 13,9 °C 48 % 91 % 1 lf 200 cb 171 cb 90 cb 75 cb 1008,3 hPa 0,0 l/m² 0,3 km/h (0 Bft) N 5 ° 0 min 0,025 mm 0,0 UV-I 58 W/m² 10,3 °C 11,7 °C 1,6 km/h (1 Bft) 95,73 %
10.05.2026 06:05 22,3 °C 11,6 °C 10,6 °C 11,6 °C 11,7 °C 13,9 °C 13,9 °C 15,0 °C 15,0 °C 13,9 °C 48 % 89 % 1 lf 200 cb 168 cb 89 cb 75 cb 1008,4 hPa 0,0 l/m² 3,8 km/h (1 Bft) N-NW 327 ° 0 min 0,000 mm 0,0 UV-I 7 W/m² 9,8 °C 11,6 °C 6,4 km/h (2 Bft) 94,87 %
10.05.2026 05:05 22,3 °C 11,3 °C 10,6 °C 11,2 °C 11,3 °C 14,4 °C 14,4 °C 15,6 °C 15,0 °C 13,9 °C 48 % 92 % 3 lf 200 cb 168 cb 89 cb 74 cb 1008,5 hPa 0,0 l/m² 1,4 km/h (1 Bft) W-SW 252 ° 0 min 0,000 mm 0,0 UV-I 0 W/m² 10,0 °C 11,3 °C 4,8 km/h (1 Bft) 94,21 %
10.05.2026 04:05 22,5 °C 11,1 °C 10,0 °C 11,1 °C 11,1 °C 14,4 °C 14,4 °C 15,6 °C 15,0 °C 13,9 °C 48 % 92 % 2 lf 200 cb 169 cb 89 cb 74 cb 1008,9 hPa 0,0 l/m² 0,0 km/h (0 Bft) S 179 ° 0 min 0,000 mm 0,0 UV-I 0 W/m² 9,8 °C 11,1 °C 0,0 km/h (0 Bft) 98,06 %
10.05.2026 03:05 22,4 °C 11,7 °C 10,6 °C 11,7 °C 11,7 °C 15,0 °C 15,0 °C 15,6 °C 15,0 °C 13,9 °C 49 % 91 % 2 lf 200 cb 167 cb 88 cb 74 cb 1009,3 hPa 0,0 l/m² 0,4 km/h (0 Bft) S 179 ° 0 min 0,000 mm 0,0 UV-I 0 W/m² 10,3 °C 11,7 °C 1,6 km/h (1 Bft) 97,25 %
10.05.2026 02:05 22,4 °C 12,1 °C 10,6 °C 12,1 °C 12,2 °C 15,0 °C 15,0 °C 16,1 °C 15,0 °C 13,9 °C 49 % 90 % 1 lf 200 cb 167 cb 87 cb 73 cb 1010,0 hPa 0,0 l/m² 0,0 km/h (0 Bft) S 179 ° 0 min 0,000 mm 0,0 UV-I 0 W/m² 10,5 °C 12,1 °C 0,0 km/h (0 Bft) 97,27 %
10.05.2026 01:05 22,4 °C 13,4 °C 11,7 °C 13,4 °C 13,6 °C 15,6 °C 15,6 °C 16,1 °C 15,6 °C 13,9 °C 49 % 87 % 0 lf 200 cb 166 cb 88 cb 73 cb 1010,3 hPa 0,0 l/m² 0,1 km/h (0 Bft) W 274 ° 0 min 0,000 mm 0,0 UV-I 0 W/m² 11,3 °C 13,4 °C 1,6 km/h (1 Bft) 96,58 %
10.05.2026 00:05 22,5 °C 13,8 °C 12,8 °C 13,8 °C 14,0 °C 16,1 °C 16,1 °C 16,1 °C 15,6 °C 13,9 °C 49 % 86 % 0 lf 200 cb 164 cb 87 cb 72 cb 1010,6 hPa 0,0 l/m² 1,1 km/h (1 Bft) SO 139 ° 0 min 0,025 mm 0,0 UV-I 0 W/m² 11,5 °C 13,8 °C 3,2 km/h (1 Bft) 74,07 %
09.05.2026 23:05 22,5 °C 15,1 °C 13,9 °C 15,1 °C 15,4 °C 16,1 °C 16,1 °C 16,1 °C 15,6 °C 13,9 °C 49 % 82 % 0 lf 200 cb 163 cb 87 cb 71 cb 1010,7 hPa 0,0 l/m² 1,7 km/h (1 Bft) SW 215 ° 0 min 0,025 mm 0,0 UV-I 0 W/m² 12,0 °C 15,1 °C 3,2 km/h (1 Bft) 94,96 %
09.05.2026 22:05 22,6 °C 16,6 °C 15,0 °C 16,5 °C 16,7 °C 16,7 °C 16,7 °C 16,7 °C 15,0 °C 13,9 °C 48 % 78 % 0 lf 200 cb 165 cb 85 cb 70 cb 1010,9 hPa 0,0 l/m² 0,4 km/h (0 Bft) O-SO 106 ° 0 min 0,001 mm 0,0 UV-I 0 W/m² 12,7 °C 16,6 °C 3,2 km/h (1 Bft) 96,64 %
09.05.2026 21:05 22,8 °C 19,7 °C 17,8 °C 19,7 °C 19,9 °C 16,7 °C 16,7 °C 16,7 °C 15,0 °C 13,9 °C 48 % 65 % 0 lf 200 cb 165 cb 85 cb 69 cb 1010,4 hPa 0,0 l/m² 1,3 km/h (1 Bft) O 96 ° 0 min 0,025 mm 0,0 UV-I 0 W/m² 12,9 °C 19,7 °C 4,8 km/h (1 Bft) 96,03 %
09.05.2026 20:05 23,1 °C 22,2 °C 18,9 °C 22,2 °C 22,3 °C 17,2 °C 17,2 °C 16,7 °C 15,0 °C 13,9 °C 46 % 55 % 0 lf 200 cb 165 cb 84 cb 64 cb 1010,2 hPa 0,0 l/m² 2,2 km/h (1 Bft) O-SO 105 ° 15 min 0,076 mm 0,0 UV-I 25 W/m² 12,7 °C 22,2 °C 6,4 km/h (2 Bft) 95,00 %
09.05.2026 19:05 23,6 °C 24,0 °C 23,3 °C 23,8 °C 24,0 °C 17,8 °C 17,8 °C 16,7 °C 15,0 °C 13,9 °C 45 % 48 % 0 lf 200 cb 161 cb 84 cb 63 cb 1010,2 hPa 0,0 l/m² 3,1 km/h (1 Bft) N-NO 22 ° 60 min 0,229 mm 0,0 UV-I 207 W/m² 12,3 °C 24,0 °C 8,0 km/h (2 Bft) 93,04 %
09.05.2026 18:05 23,3 °C 24,8 °C 24,4 °C 24,8 °C 24,8 °C 18,3 °C 18,3 °C 16,1 °C 15,0 °C 13,9 °C 45 % 48 % 0 lf 200 cb 200 cb 121 cb 85 cb 1010,4 hPa 0,0 l/m² 3,7 km/h (1 Bft) N 355 ° 50 min 0,304 mm 1,0 UV-I 366 W/m² 13,0 °C 24,8 °C 9,7 km/h (2 Bft) 98,47 %
09.05.2026 17:05 23,0 °C 25,8 °C 26,1 °C 25,4 °C 25,8 °C 18,3 °C 18,3 °C 16,1 °C 14,4 °C 13,9 °C 46 % 47 % 0 lf 200 cb 199 cb 120 cb 85 cb 1010,9 hPa 0,0 l/m² 7,1 km/h (2 Bft) W 267 ° 50 min 0,331 mm 2,1 UV-I 592 W/m² 13,6 °C 25,6 °C 14,5 km/h (3 Bft) 94,55 %
09.05.2026 16:05 22,4 °C 24,6 °C 24,4 °C 24,6 °C 25,3 °C 18,9 °C 18,9 °C 16,1 °C 14,4 °C 13,9 °C 48 % 49 % 0 lf 200 cb 199 cb 120 cb 85 cb 1011,6 hPa 0,0 l/m² 3,0 km/h (1 Bft) O-SO 107 ° 60 min 0,406 mm 2,8 UV-I 367 W/m² 13,2 °C 24,6 °C 11,3 km/h (2 Bft) 93,50 %
09.05.2026 15:05 22,0 °C 24,9 °C 25,0 °C 24,9 °C 25,1 °C 19,4 °C 19,4 °C 15,6 °C 13,9 °C 13,9 °C 49 % 52 % 0 lf 200 cb 200 cb 119 cb 85 cb 1012,0 hPa 0,0 l/m² 2,1 km/h (1 Bft) NO 50 ° 60 min 0,533 mm 4,2 UV-I 802 W/m² 14,4 °C 24,9 °C 6,4 km/h (2 Bft) 95,04 %
09.05.2026 14:05 21,9 °C 23,5 °C 22,8 °C 23,2 °C 23,5 °C 18,9 °C 18,9 °C 15,0 °C 13,9 °C 13,9 °C 50 % 56 % 0 lf 200 cb 200 cb 119 cb 85 cb 1012,8 hPa 0,0 l/m² 6,8 km/h (2 Bft) N 355 ° 60 min 0,508 mm 4,8 UV-I 837 W/m² 14,2 °C 23,4 °C 16,1 km/h (3 Bft) 96,61 %
09.05.2026 13:05 21,9 °C 21,9 °C 21,1 °C 21,7 °C 21,9 °C 17,8 °C 17,8 °C 14,4 °C 13,9 °C 13,9 °C 50 % 61 % 0 lf 200 cb 200 cb 120 cb 85 cb 1013,9 hPa 0,0 l/m² 5,4 km/h (1 Bft) N-NW 331 ° 60 min 0,483 mm 4,8 UV-I 793 W/m² 14,0 °C 21,9 °C 9,7 km/h (2 Bft) 92,11 %
09.05.2026 12:05 21,9 °C 20,2 °C 19,4 °C 20,1 °C 20,2 °C 16,1 °C 16,1 °C 13,9 °C 13,9 °C 13,9 °C 49 % 64 % 0 lf 200 cb 200 cb 120 cb 84 cb 1014,4 hPa 0,0 l/m² 4,2 km/h (1 Bft) N 360 ° 5 min 0,432 mm 4,2 UV-I 751 W/m² 13,2 °C 20,2 °C 9,7 km/h (2 Bft) 94,02 %
09.05.2026 12:00 21,9 °C 20,2 °C 19,4 °C 20,1 °C 20,2 °C 16,1 °C 16,1 °C 13,9 °C 13,9 °C 13,9 °C 49 % 64 % 0 lf 200 cb 200 cb 120 cb 84 cb 1014,5 hPa 0,0 l/m² 4,8 km/h (1 Bft) N-NW 334 ° 0 min 0,432 mm 4,1 UV-I 744 W/m² 13,2 °C 20,2 °C 12,9 km/h (3 Bft) 98,37 %
_ Min-Zeit 12:00 04:15 03:35 04:15 04:05 08:20 08:20 12:00 12:00 12:00 17:55 17:15 12:00 12:00 19:05 19:00 18:55 11:05 - 00:25 - - - - - - 04:15 04:15 00:30 00:05
Minimum _ 21,9 °C 11,0 °C 10,0 °C 11,0 °C 11,1 °C 13,3 °C 13,3 °C 13,9 °C 13,9 °C 13,9 °C 44 % 46 % 0 lf 200 cb 161 cb 84 cb 62 cb 1006,8 hPa - 0,0 km/h (0 Bft) - - - - - - 9,8 °C 11,0 °C 0,0 km/h (0 Bft) 74,07 %
_ Max-Zeit 18:45 17:05 17:00 16:50 17:05 14:10 14:10 18:10 22:15 12:00 11:00 03:40 04:50 12:00 12:00 18:00 12:35 12:00 12:00 15:50 - - 12:00 15:00 13:30 14:05 15:00 17:05 12:15 13:35
Maximum _ 23,6 °C 25,8 °C 26,1 °C 25,4 °C 25,8 °C 19,4 °C 19,4 °C 16,7 °C 15,6 °C 13,9 °C 51 % 92 % 3 lf 200 cb 200 cb 121 cb 85 cb 1014,5 hPa 0,0 l/m² 9,9 km/h
N-NW (2 Bft)
- - 5 min 0,533 mm 4,9 UV-I 837 W/m² 15,7 °C 25,6 °C 17,7 km/h
N-NW (3 Bft)
100,00 %
Durchschnitt _ 22,4 °C 17,9 °C 17,0 °C 17,8 °C 18,0 °C 16,1 °C 16,1 °C 15,5 °C 14,8 °C 13,9 °C 48 % 72 % 0 lf 200 cb 179 cb 99 cb 76 cb 1010,5 hPa #0,0 l/m² 2,8 km/h (1 Bft) N-NW - #3:25 h #0,813 mm 1,7 UV-I 281 W/m² 12,3 °C 17,9 °C 7,1 km/h (2 Bft) 95,58 %
copy; 2009 Dieter Kraft